Time;durP1;ratioP1;P1;durP2;ratioP2;P2;SDS_P1;SDS_P2;PMS_P1;PMS_P2;Temp;Humidity;BMP_temperature;BMP_pressure;BME280_temperature;BME280_humidity;BME280_pressure;Samples;Min_cycle;Max_cycle;Signal;HPM_P1;HPM_P2
2022/05/16 00:01:44;;;;;;;0.57;0.50;;;17.40;99.90;;;;;;5038342;28;20271;-82
2022/05/16 00:04:10;;;;;;;0.43;0.37;;;17.40;99.90;;;;;;5055460;28;20210;-82
2022/05/16 00:06:36;;;;;;;0.40;0.40;;;17.40;99.90;;;;;;5039408;28;20214;-82
2022/05/16 00:09:02;;;;;;;0.30;0.30;;;17.40;99.90;;;;;;5055664;28;20779;-82
2022/05/16 00:11:27;;;;;;;0.40;0.40;;;17.30;99.90;;;;;;5038069;28;20246;-83
2022/05/16 00:13:53;;;;;;;0.83;0.40;;;17.30;99.90;;;;;;5056159;28;20174;-82
2022/05/16 00:16:19;;;;;;;0.30;0.30;;;17.30;99.90;;;;;;5039083;28;20208;-82
2022/05/16 00:18:45;;;;;;;0.30;0.30;;;17.30;99.90;;;;;;5039429;28;20654;-81
2022/05/16 00:21:11;;;;;;;1.10;0.63;;;17.30;99.90;;;;;;5037414;28;20220;-82
2022/05/16 00:23:36;;;;;;;0.23;0.23;;;17.40;99.90;;;;;;5039705;28;20188;-82
2022/05/16 00:26:02;;;;;;;1.87;0.70;;;17.50;99.90;;;;;;5056710;28;20212;-81
2022/05/16 00:28:27;;;;;;;0.37;0.37;;;17.50;99.90;;;;;;5038871;28;20188;-81
2022/05/16 00:30:53;;;;;;;0.47;0.47;;;17.50;99.90;;;;;;5039117;28;20837;-81
2022/05/16 00:33:18;;;;;;;0.30;0.30;;;17.50;99.90;;;;;;5039552;28;20193;-83
2022/05/16 00:35:44;;;;;;;0.40;0.40;;;17.50;99.90;;;;;;5057023;28;20255;-82
2022/05/16 00:38:10;;;;;;;0.30;0.30;;;17.50;99.90;;;;;;5040777;28;20269;-83
2022/05/16 00:40:35;;;;;;;0.40;0.40;;;17.40;99.90;;;;;;5055496;28;20260;-82
2022/05/16 00:43:04;;;;;;;0.40;0.30;;;17.50;99.90;;;;;;5039054;28;20216;-82
2022/05/16 00:45:30;;;;;;;0.30;0.30;;;17.40;99.90;;;;;;5037338;28;20292;-82
2022/05/16 00:47:55;;;;;;;0.50;0.50;;;17.40;99.90;;;;;;5040140;28;20280;-82
2022/05/16 00:50:21;;;;;;;0.43;0.40;;;17.40;99.90;;;;;;5057400;28;20260;-81
2022/05/16 00:52:49;;;;;;;0.37;0.37;;;17.40;99.90;;;;;;5039806;28;20197;-82
2022/05/16 00:55:21;;;;;;;0.10;0.10;;;17.50;99.90;;;;;;5037033;28;20752;-83
2022/05/16 00:57:52;;;;;;;0.30;0.30;;;17.60;99.90;;;;;;5071344;28;20197;-81
2022/05/16 01:00:21;;;;;;;2.00;0.87;;;17.70;99.90;;;;;;5036360;28;20177;-82
2022/05/16 01:05:41;;;;;;;0.70;0.57;;;17.60;99.90;;;;;;5055597;28;20216;-82
2022/05/16 01:08:13;;;;;;;0.40;0.40;;;17.70;99.90;;;;;;5054705;28;20193;-81
2022/05/16 01:10:39;;;;;;;0.43;0.43;;;17.70;99.90;;;;;;5055092;28;20186;-82
2022/05/16 01:13:07;;;;;;;1.10;0.57;;;17.70;99.90;;;;;;5037816;28;20198;-81
2022/05/16 01:15:37;;;;;;;0.40;0.40;;;17.70;99.90;;;;;;5053794;28;20228;-81
2022/05/16 01:18:07;;;;;;;0.30;0.30;;;17.60;99.90;;;;;;5055849;28;20181;-81
2022/05/16 01:20:52;;;;;;;0.30;0.30;;;17.70;99.90;;;;;;5034422;28;20295;-81
2022/05/16 01:23:20;;;;;;;0.40;0.40;;;17.70;99.90;;;;;;5053017;28;20193;-82
2022/05/16 01:25:50;;;;;;;0.30;0.30;;;17.70;99.90;;;;;;5052789;28;20218;-82
2022/05/16 01:28:19;;;;;;;0.80;0.80;;;17.70;99.90;;;;;;5055476;28;20630;-82
2022/05/16 01:30:46;;;;;;;0.87;0.80;;;17.70;99.90;;;;;;5054177;28;20189;-81
2022/05/16 01:33:16;;;;;;;0.50;0.50;;;17.60;99.90;;;;;;5056027;28;20354;-82
2022/05/16 01:35:42;;;;;;;0.37;0.37;;;17.60;99.90;;;;;;5038819;28;20264;-81
2022/05/16 01:38:23;;;;;;;0.33;0.33;;;17.50;99.90;;;;;;5038279;28;20296;-82
2022/05/16 01:40:57;;;;;;;0.17;0.17;;;17.50;99.90;;;;;;5039019;28;20177;-82
2022/05/16 01:43:26;;;;;;;0.27;0.27;;;17.50;99.90;;;;;;5056493;28;20182;-82
2022/05/16 01:45:52;;;;;;;0.63;0.23;;;17.50;99.90;;;;;;5054779;28;20205;-82
2022/05/16 01:48:19;;;;;;;0.57;0.57;;;17.50;99.90;;;;;;5056236;28;20185;-82
2022/05/16 01:50:46;;;;;;;0.37;0.37;;;17.60;99.90;;;;;;5054650;28;20311;-83
2022/05/16 01:53:12;;;;;;;0.53;0.53;;;17.60;99.90;;;;;;5054414;28;20215;-81
2022/05/16 01:55:38;;;;;;;0.20;0.20;;;17.70;99.90;;;;;;5036276;28;20212;-82
2022/05/16 01:58:07;;;;;;;1.60;0.57;;;17.70;99.90;;;;;;5055565;28;20242;-82
2022/05/16 02:00:33;;;;;;;0.33;0.33;;;17.70;99.90;;;;;;5053421;28;20292;-83
2022/05/16 02:03:00;;;;;;;0.20;0.20;;;17.80;99.90;;;;;;5037368;28;20185;-81
2022/05/16 02:05:26;;;;;;;1.30;0.20;;;17.90;99.90;;;;;;5057830;28;20209;-82
2022/05/16 02:07:52;;;;;;;0.20;0.20;;;17.70;99.90;;;;;;5038336;28;20197;-83
2022/05/16 02:10:21;;;;;;;0.57;0.50;;;17.80;99.90;;;;;;5054866;28;20212;-82
2022/05/16 02:12:47;;;;;;;1.03;0.80;;;18.00;99.90;;;;;;5036017;28;20200;-81
2022/05/16 02:15:16;;;;;;;0.20;0.20;;;18.00;99.90;;;;;;5038451;28;20215;-82
2022/05/16 02:17:41;;;;;;;0.30;0.30;;;18.00;99.90;;;;;;5053512;28;20176;-83
2022/05/16 02:20:08;;;;;;;0.30;0.30;;;17.60;99.90;;;;;;5034319;28;20196;-81
2022/05/16 02:25:18;;;;;;;1.03;0.57;;;17.30;99.90;;;;;;5053710;28;20216;-81
2022/05/16 02:27:45;;;;;;;1.53;0.60;;;17.00;99.90;;;;;;5055297;28;20715;-81
2022/05/16 02:30:12;;;;;;;0.33;0.33;;;16.90;99.90;;;;;;5053603;28;20682;-82
2022/05/16 02:32:38;;;;;;;0.40;0.40;;;16.90;99.90;;;;;;5071705;28;21106;-82
2022/05/16 02:35:04;;;;;;;0.53;0.50;;;16.90;99.90;;;;;;5056893;28;20209;-81
2022/05/16 02:37:30;;;;;;;0.23;0.23;;;17.10;99.90;;;;;;5057228;28;20292;-82
2022/05/16 02:39:55;;;;;;;0.60;0.60;;;17.10;99.90;;;;;;5037200;28;20190;-82
2022/05/16 02:42:21;;;;;;;1.70;0.70;;;17.10;99.90;;;;;;5055917;28;20188;-82
2022/05/16 02:44:46;;;;;;;0.37;0.30;;;17.00;99.90;;;;;;5054962;28;20231;-82
2022/05/16 02:47:14;;;;;;;1.13;1.13;;;16.90;99.90;;;;;;5036647;28;20192;-81
2022/05/16 02:49:40;;;;;;;0.60;0.60;;;17.00;99.90;;;;;;5037588;28;20193;-82
2022/05/16 02:52:06;;;;;;;0.50;0.43;;;17.10;99.90;;;;;;5053890;28;20248;-82
2022/05/16 02:54:32;;;;;;;0.20;0.20;;;17.10;99.90;;;;;;5054915;28;20191;-82
2022/05/16 02:56:58;;;;;;;0.30;0.30;;;17.10;99.90;;;;;;5054388;28;20312;-82
2022/05/16 02:59:27;;;;;;;0.77;0.40;;;17.30;99.90;;;;;;5057263;28;20181;-81
2022/05/16 03:01:53;;;;;;;0.93;0.83;;;17.30;99.90;;;;;;5038859;28;20283;-82
2022/05/16 03:04:19;;;;;;;0.50;0.50;;;17.40;99.90;;;;;;5039291;28;20254;-84
2022/05/16 03:06:45;;;;;;;0.40;0.40;;;17.50;99.90;;;;;;5060110;28;20206;-81
2022/05/16 03:09:11;;;;;;;0.37;0.30;;;17.40;99.90;;;;;;5040161;28;20681;-82
2022/05/16 03:11:36;;;;;;;0.40;0.40;;;17.40;99.90;;;;;;5036874;28;20181;-82
2022/05/16 03:14:02;;;;;;;0.30;0.30;;;17.50;99.90;;;;;;5057501;28;20538;-82
2022/05/16 03:16:27;;;;;;;0.70;0.40;;;17.60;99.90;;;;;;5056781;28;20211;-83
2022/05/16 03:18:53;;;;;;;0.40;0.30;;;17.60;99.90;;;;;;5057426;28;20196;-81
2022/05/16 03:21:20;;;;;;;2.33;0.20;;;17.70;99.90;;;;;;5057241;28;20232;-81
2022/05/16 03:23:45;;;;;;;0.30;0.30;;;17.70;99.90;;;;;;5057259;28;20192;-82
2022/05/16 03:26:11;;;;;;;0.40;0.40;;;17.80;99.90;;;;;;5057895;28;20205;-83
2022/05/16 03:28:37;;;;;;;0.60;0.50;;;17.80;99.90;;;;;;5059479;28;20209;-82
2022/05/16 03:31:03;;;;;;;0.67;0.40;;;17.80;99.90;;;;;;5041587;28;20966;-81
2022/05/16 03:33:29;;;;;;;0.60;0.40;;;17.80;99.90;;;;;;5059031;28;20198;-81
2022/05/16 03:35:56;;;;;;;0.30;0.30;;;17.70;99.90;;;;;;5042967;28;20193;-81
2022/05/16 03:41:10;;;;;;;0.53;0.40;;;17.70;99.90;;;;;;5058515;28;20274;-81
2022/05/16 03:43:38;;;;;;;0.30;0.30;;;17.70;99.90;;;;;;5040203;28;20280;-82
2022/05/16 03:46:04;;;;;;;1.00;0.90;;;17.60;99.90;;;;;;5028816;28;20205;-81
2022/05/16 03:48:30;;;;;;;0.17;0.17;;;17.20;99.90;;;;;;5035821;28;20181;-81
2022/05/16 03:50:56;;;;;;;0.87;0.37;;;17.10;99.90;;;;;;5055572;28;20714;-81
2022/05/16 03:53:21;;;;;;;0.87;0.30;;;17.30;99.90;;;;;;5037099;28;20253;-82
2022/05/16 03:55:47;;;;;;;0.60;0.60;;;17.40;99.90;;;;;;5071061;28;20206;-81
2022/05/16 03:58:13;;;;;;;0.53;0.53;;;17.60;99.90;;;;;;5038285;28;20181;-82
2022/05/16 04:00:39;;;;;;;1.03;0.70;;;17.70;99.90;;;;;;5055052;28;20177;-82
2022/05/16 04:03:05;;;;;;;0.73;0.50;;;17.80;99.90;;;;;;5056425;28;20173;-82
2022/05/16 04:05:30;;;;;;;0.53;0.40;;;17.60;99.90;;;;;;5035808;28;20212;-82
2022/05/16 04:07:56;;;;;;;0.50;0.50;;;18.10;99.90;;;;;;5055276;28;20197;-82
2022/05/16 04:10:23;;;;;;;0.73;0.50;;;18.30;99.90;;;;;;5056608;28;20643;-81
2022/05/16 04:12:49;;;;;;;0.83;0.80;;;18.10;99.90;;;;;;5037033;28;20800;-82
2022/05/16 04:15:15;;;;;;;0.73;0.60;;;18.00;99.90;;;;;;5057621;28;20208;-81
2022/05/16 04:17:41;;;;;;;0.57;0.57;;;18.00;99.90;;;;;;5036629;28;20642;-81
2022/05/16 04:20:08;;;;;;;0.30;0.30;;;18.00;99.90;;;;;;5038337;28;20545;-81
2022/05/16 04:22:34;;;;;;;0.70;0.70;;;18.00;99.90;;;;;;5033267;28;20190;-82
2022/05/16 04:24:59;;;;;;;1.17;0.37;;;17.90;99.90;;;;;;5038119;28;20216;-83
2022/05/16 04:27:25;;;;;;;0.50;0.50;;;18.00;99.90;;;;;;5054512;28;20269;-83
2022/05/16 04:29:50;;;;;;;1.93;1.07;;;17.90;99.90;;;;;;5052222;28;20233;-81
2022/05/16 04:32:16;;;;;;;1.07;1.00;;;17.60;99.90;;;;;;5055790;28;20706;-82
2022/05/16 04:34:41;;;;;;;0.97;0.90;;;17.30;99.90;;;;;;5039358;28;20201;-82
2022/05/16 04:37:07;;;;;;;0.40;0.40;;;17.30;99.90;;;;;;5055338;28;20198;-81
2022/05/16 04:39:33;;;;;;;0.60;0.33;;;17.10;99.90;;;;;;5053864;28;20174;-82
2022/05/16 04:44:43;;;;;;;0.37;0.23;;;17.40;99.90;;;;;;5054947;28;21039;-81
2022/05/16 04:47:09;;;;;;;0.43;0.43;;;17.60;99.90;;;;;;5055647;28;20189;-82
2022/05/16 04:49:36;;;;;;;1.80;0.53;;;17.70;99.90;;;;;;5037214;28;20231;-82
2022/05/16 04:52:02;;;;;;;0.60;0.60;;;17.90;99.90;;;;;;5053338;28;20260;-81
2022/05/16 04:54:28;;;;;;;0.20;0.20;;;18.10;99.90;;;;;;5053735;28;20189;-82
2022/05/16 04:56:54;;;;;;;1.40;0.87;;;18.40;99.90;;;;;;5038206;28;20292;-82
2022/05/16 04:59:20;;;;;;;0.30;0.20;;;18.60;99.90;;;;;;5067988;28;20174;-81
2022/05/16 05:01:47;;;;;;;0.53;0.30;;;18.70;99.90;;;;;;5055892;28;20184;-82
2022/05/16 05:04:13;;;;;;;0.40;0.40;;;19.00;99.90;;;;;;5070728;28;20278;-82
2022/05/16 05:06:39;;;;;;;1.27;0.60;;;19.30;99.90;;;;;;5037223;28;20230;-81
2022/05/16 05:09:05;;;;;;;0.40;0.40;;;19.40;99.90;;;;;;5035220;28;20208;-81
2022/05/16 05:14:33;;;;;;;0.67;0.17;;;19.90;99.90;;;;;;5055507;28;20234;-80
2022/05/16 05:17:05;;;;;;;0.50;0.50;;;20.10;99.90;;;;;;5037917;28;20189;-81
2022/05/16 05:19:32;;;;;;;0.40;0.40;;;20.20;99.90;;;;;;5058085;28;20271;-81
2022/05/16 05:21:58;;;;;;;0.47;0.47;;;20.30;99.90;;;;;;5055315;28;20204;-81
2022/05/16 05:24:24;;;;;;;0.63;0.63;;;20.20;99.90;;;;;;5055336;28;20718;-81
2022/05/16 05:26:49;;;;;;;0.50;0.50;;;20.30;99.90;;;;;;5034853;28;20263;-81
2022/05/16 05:29:16;;;;;;;0.47;0.47;;;20.30;99.90;;;;;;5052142;28;20194;-80
2022/05/16 05:31:43;;;;;;;0.70;0.70;;;20.20;99.90;;;;;;5054938;28;20276;-80
2022/05/16 05:34:11;;;;;;;0.73;0.70;;;20.30;99.90;;;;;;5054891;28;20184;-80
2022/05/16 05:36:38;;;;;;;0.60;0.53;;;20.30;99.90;;;;;;5056142;28;20311;-81
2022/05/16 05:39:04;;;;;;;0.30;0.30;;;20.30;99.90;;;;;;5053754;28;20665;-80
2022/05/16 05:41:30;;;;;;;0.40;0.40;;;20.30;99.90;;;;;;5053132;28;20186;-80
2022/05/16 05:43:56;;;;;;;0.83;0.40;;;20.30;99.90;;;;;;5035275;28;20276;-80
2022/05/16 05:46:21;;;;;;;0.87;0.87;;;20.30;99.90;;;;;;5052291;28;20215;-80
2022/05/16 05:48:47;;;;;;;0.67;0.67;;;20.40;99.90;;;;;;5034728;28;21068;-80
2022/05/16 05:51:14;;;;;;;0.53;0.53;;;20.30;99.90;;;;;;5052656;28;20193;-80
2022/05/16 05:53:41;;;;;;;1.10;1.00;;;20.30;99.90;;;;;;5034169;28;20205;-80
2022/05/16 05:56:08;;;;;;;0.60;0.60;;;20.30;99.90;;;;;;5051834;28;20200;-80
2022/05/16 05:58:34;;;;;;;1.07;1.07;;;20.30;99.90;;;;;;5036506;28;20228;-80
2022/05/16 06:01:01;;;;;;;1.23;0.80;;;20.20;99.90;;;;;;5051988;28;20181;-80
2022/05/16 06:03:27;;;;;;;0.33;0.33;;;20.10;99.90;;;;;;5053931;28;20220;-80
2022/05/16 06:05:53;;;;;;;0.90;0.90;;;20.10;99.90;;;;;;5054998;28;20223;-80
2022/05/16 06:08:20;;;;;;;0.47;0.47;;;20.20;99.90;;;;;;5036268;28;20654;-80
2022/05/16 06:10:45;;;;;;;0.27;0.27;;;20.30;99.90;;;;;;5034268;28;20224;-80
2022/05/16 06:13:11;;;;;;;0.57;0.57;;;20.50;99.90;;;;;;5035848;28;20762;-80
2022/05/16 06:15:37;;;;;;;1.47;0.73;;;20.70;99.90;;;;;;5049451;28;20612;-80
2022/05/16 06:18:03;;;;;;;0.40;0.40;;;20.90;99.90;;;;;;5050810;28;20200;-80
2022/05/16 06:20:29;;;;;;;0.50;0.50;;;21.00;99.90;;;;;;5031181;28;20189;-80
2022/05/16 06:22:55;;;;;;;1.70;0.57;;;21.20;99.90;;;;;;5033068;28;20206;-80
2022/05/16 06:25:31;;;;;;;0.60;0.60;;;21.30;99.90;;;;;;5051042;28;20675;-80
2022/05/16 06:28:05;;;;;;;0.30;0.30;;;21.40;99.90;;;;;;5052299;28;20187;-80
2022/05/16 06:30:32;;;;;;;0.43;0.43;;;21.40;99.90;;;;;;5052919;28;20204;-80
2022/05/16 06:32:58;;;;;;;0.27;0.27;;;21.50;99.90;;;;;;5052369;28;20265;-80
2022/05/16 06:35:24;;;;;;;0.50;0.50;;;21.70;99.90;;;;;;5056175;28;20201;-80
2022/05/16 06:37:50;;;;;;;0.50;0.40;;;21.80;99.90;;;;;;5037816;28;20734;-80
2022/05/16 06:40:17;;;;;;;0.50;0.50;;;21.80;99.90;;;;;;5041510;28;20186;-80
2022/05/16 06:42:44;;;;;;;0.50;0.50;;;22.10;99.90;;;;;;5037919;28;20189;-80
2022/05/16 06:45:11;;;;;;;1.07;0.57;;;22.30;99.90;;;;;;5054841;28;20204;-80
2022/05/16 06:47:36;;;;;;;1.27;1.27;;;22.30;99.90;;;;;;5072709;28;20758;-80
2022/05/16 06:50:03;;;;;;;1.07;0.80;;;22.40;99.90;;;;;;5058306;28;20202;-80
2022/05/16 06:52:28;;;;;;;0.50;0.50;;;22.30;99.90;;;;;;5054726;28;20209;-80
2022/05/16 06:54:54;;;;;;;1.10;0.43;;;22.30;99.90;;;;;;5058414;28;20213;-80
2022/05/16 06:57:20;;;;;;;0.33;0.33;;;22.10;99.90;;;;;;5037713;28;20189;-80
2022/05/16 06:59:46;;;;;;;0.97;0.67;;;21.80;99.90;;;;;;5055434;28;20235;-80
2022/05/16 07:02:11;;;;;;;0.93;0.80;;;22.10;99.90;;;;;;5054331;28;20190;-80
2022/05/16 07:04:40;;;;;;;1.47;0.77;;;22.30;99.90;;;;;;5036233;28;20218;-80
2022/05/16 07:07:11;;;;;;;0.70;0.70;;;22.70;99.90;;;;;;5068364;28;20224;-81
2022/05/16 07:09:39;;;;;;;2.47;0.73;;;23.10;99.90;;;;;;5036404;28;20201;-81
2022/05/16 07:12:05;;;;;;;1.23;1.23;;;23.10;99.90;;;;;;5055928;28;20296;-82
2022/05/16 07:14:31;;;;;;;1.13;0.63;;;23.20;99.90;;;;;;5059441;28;20189;-81
2022/05/16 07:16:56;;;;;;;2.53;0.93;;;23.20;99.90;;;;;;5057298;28;21125;-81
2022/05/16 07:19:22;;;;;;;2.37;0.83;;;23.30;99.90;;;;;;5042191;28;20183;-80
2022/05/16 07:21:47;;;;;;;0.93;0.63;;;23.20;99.90;;;;;;5039816;28;20564;-81
2022/05/16 07:24:13;;;;;;;0.50;0.50;;;23.50;99.90;;;;;;5061114;28;20193;-81
2022/05/16 07:29:22;;;;;;;1.93;1.13;;;23.50;99.90;;;;;;5060553;28;20456;-81
2022/05/16 07:31:51;;;;;;;1.93;1.20;;;23.20;99.90;;;;;;5041217;28;20267;-81
2022/05/16 07:34:17;;;;;;;1.33;0.73;;;22.50;99.90;;;;;;5059549;28;20261;-81
2022/05/16 07:36:42;;;;;;;1.00;0.97;;;22.10;99.90;;;;;;5057286;28;20217;-81
2022/05/16 07:39:08;;;;;;;0.60;0.60;;;21.90;99.90;;;;;;5041708;28;20655;-81
2022/05/16 07:41:33;;;;;;;1.00;0.70;;;22.20;99.90;;;;;;5041003;28;20187;-81
2022/05/16 07:43:59;;;;;;;1.00;0.73;;;22.30;99.90;;;;;;5058899;28;20178;-81
2022/05/16 07:46:24;;;;;;;0.57;0.53;;;22.40;99.90;;;;;;5058866;28;20201;-81
2022/05/16 07:48:50;;;;;;;1.30;0.83;;;22.00;99.90;;;;;;5039492;28;20899;-81
2022/05/16 07:51:16;;;;;;;2.70;1.27;;;22.20;99.90;;;;;;5059964;28;20617;-81
2022/05/16 07:53:42;;;;;;;0.83;0.73;;;22.20;99.90;;;;;;5058413;28;20208;-81
2022/05/16 07:56:09;;;;;;;0.67;0.67;;;22.60;99.90;;;;;;5041749;28;20184;-81
2022/05/16 07:58:35;;;;;;;0.73;0.47;;;23.00;99.90;;;;;;5060029;28;20316;-81
2022/05/16 08:01:01;;;;;;;1.63;0.80;;;23.10;99.90;;;;;;5056889;28;20212;-81
2022/05/16 08:03:30;;;;;;;0.67;0.67;;;22.30;99.90;;;;;;5041406;28;20201;-81
2022/05/16 08:05:56;;;;;;;0.80;0.80;;;22.90;99.90;;;;;;5058238;28;20198;-81
2022/05/16 08:11:09;;;;;;;1.13;0.70;;;23.20;99.90;;;;;;5059060;28;20247;-81
2022/05/16 08:13:35;;;;;;;0.40;0.40;;;23.60;99.90;;;;;;5042145;28;20201;-81
2022/05/16 08:16:01;;;;;;;0.87;0.50;;;23.90;99.90;;;;;;5038352;28;20568;-81
2022/05/16 08:18:26;;;;;;;0.50;0.50;;;23.80;99.90;;;;;;5037712;28;20174;-80
2022/05/16 08:20:52;;;;;;;0.57;0.57;;;23.80;99.90;;;;;;5058264;28;20185;-81
2022/05/16 08:23:23;;;;;;;1.00;0.80;;;24.00;99.90;;;;;;5038014;28;20177;-81
2022/05/16 08:25:48;;;;;;;1.63;0.70;;;24.30;99.90;;;;;;5058617;28;20209;-81
2022/05/16 08:28:15;;;;;;;2.70;0.70;;;24.10;99.90;;;;;;5059141;28;20877;-81
2022/05/16 08:30:41;;;;;;;2.63;0.60;;;24.40;99.90;;;;;;5040191;28;20177;-81
2022/05/16 08:33:07;;;;;;;0.30;0.30;;;24.50;99.90;;;;;;5052692;28;20208;-81
2022/05/16 08:35:33;;;;;;;1.00;1.00;;;24.70;99.90;;;;;;5056170;28;20201;-81
2022/05/16 08:41:04;;;;;;;0.60;0.60;;;25.00;99.90;;;;;;5059427;28;20597;-82
2022/05/16 08:43:48;;;;;;;1.30;0.83;;;25.00;99.90;;;;;;5057160;28;20200;-82
2022/05/16 08:46:55;;;;;;;0.97;0.90;;;25.10;99.90;;;;;;5038488;28;20224;-82
2022/05/16 08:49:33;;;;;;;0.70;0.70;;;25.20;99.90;;;;;;5055191;28;20193;-82
2022/05/16 08:52:11;;;;;;;1.43;0.70;;;25.10;99.90;;;;;;5057257;28;20197;-82
2022/05/16 08:54:45;;;;;;;0.73;0.73;;;24.90;99.90;;;;;;5041284;28;20170;-82
2022/05/16 08:57:14;;;;;;;1.00;0.97;;;24.90;99.90;;;;;;5075281;28;20197;-81
2022/05/16 08:59:44;;;;;;;3.20;0.93;;;25.00;99.90;;;;;;5041509;28;20178;-82
2022/05/16 09:02:24;;;;;;;0.60;0.60;;;25.10;99.90;;;;;;5069218;28;20186;-81
2022/05/16 09:04:57;;;;;;;0.60;0.60;;;25.40;99.90;;;;;;5057904;28;20228;-82
2022/05/16 09:07:42;;;;;;;0.67;0.67;;;25.60;99.90;;;;;;5056019;28;20238;-82
2022/05/16 09:10:13;;;;;;;3.00;0.90;;;25.70;99.90;;;;;;5054848;28;20203;-82
2022/05/16 09:13:11;;;;;;;0.50;0.40;;;25.60;99.90;;;;;;5054259;28;20197;-82
2022/05/16 09:16:21;;;;;;;3.40;0.77;;;25.70;99.90;;;;;;5054207;28;20562;-82
2022/05/16 09:19:01;;;;;;;0.70;0.70;;;25.80;99.90;;;;;;5037634;28;20181;-82
2022/05/16 09:22:00;;;;;;;1.17;0.90;;;26.00;99.90;;;;;;5068953;28;20944;-82
2022/05/16 09:24:35;;;;;;;0.53;0.53;;;26.00;99.90;;;;;;5053290;28;20185;-82
2022/05/16 09:27:03;;;;;;;0.90;0.80;;;26.30;99.90;;;;;;5037759;28;20201;-83
2022/05/16 09:29:35;;;;;;;0.50;0.50;;;26.40;99.90;;;;;;5038224;28;20185;-83
2022/05/16 09:32:09;;;;;;;0.67;0.67;;;26.50;99.90;;;;;;5034090;28;20174;-81
2022/05/16 09:34:35;;;;;;;0.60;0.60;;;26.60;99.90;;;;;;5054347;28;20189;-83
2022/05/16 09:37:00;;;;;;;2.00;0.83;;;26.60;99.90;;;;;;5070116;28;20211;-82
2022/05/16 09:39:35;;;;;;;1.27;0.73;;;26.60;99.90;;;;;;5066017;28;20673;-83
2022/05/16 09:42:20;;;;;;;0.53;0.53;;;26.70;99.90;;;;;;5054890;28;21279;-82
2022/05/16 09:45:17;;;;;;;0.87;0.87;;;26.80;99.90;;;;;;5039095;28;20670;-83
2022/05/16 09:47:43;;;;;;;0.45;0.40;;;26.90;99.90;;;;;;5057062;28;20177;-83
2022/05/16 09:50:20;;;;;;;0.63;0.63;;;26.90;99.90;;;;;;5037666;28;20189;-83
2022/05/16 09:52:47;;;;;;;1.05;0.90;;;26.90;99.90;;;;;;5054834;28;20227;-83
2022/05/16 09:55:25;;;;;;;0.50;0.50;;;26.80;99.90;;;;;;5055905;28;20600;-83
2022/05/16 09:58:01;;;;;;;0.83;0.70;;;26.90;99.90;;;;;;5039784;28;20225;-82
2022/05/16 10:00:30;;;;;;;1.15;0.95;;;27.30;99.90;;;;;;5035755;28;20181;-82
2022/05/16 10:03:19;;;;;;;1.05;0.98;;;27.50;99.90;;;;;;5056960;28;20192;-82
2022/05/16 10:05:51;;;;;;;0.65;0.65;;;27.60;99.90;;;;;;5037430;28;20294;-82
2022/05/16 10:08:38;;;;;;;0.60;0.60;;;28.00;99.90;;;;;;5039740;28;20197;-83
2022/05/16 10:11:25;;;;;;;1.25;1.15;;;27.80;99.90;;;;;;5038722;28;20182;-82
2022/05/16 10:13:52;;;;;;;1.15;0.70;;;27.90;99.90;;;;;;5039930;28;20288;-82
2022/05/16 10:16:19;;;;;;;0.88;0.82;;;27.90;99.90;;;;;;5038782;28;20269;-83
2022/05/16 10:18:49;;;;;;;2.72;2.10;;;28.10;99.90;;;;;;5058126;28;21907;-83
2022/05/16 10:21:22;;;;;;;1.00;0.90;;;28.30;99.90;;;;;;5041350;28;20243;-83
2022/05/16 10:23:48;;;;;;;1.17;0.93;;;28.70;99.90;;;;;;5076010;28;20893;-83
2022/05/16 10:26:18;;;;;;;1.30;1.27;;;28.80;99.90;;;;;;5058100;28;20242;-82
2022/05/16 10:28:56;;;;;;;1.08;0.82;;;28.80;99.90;;;;;;5059695;28;20211;-82
2022/05/16 10:34:17;;;;;;;1.48;1.38;;;28.80;99.90;;;;;;5056897;28;20273;-82
2022/05/16 10:36:48;;;;;;;1.55;1.23;;;28.80;99.90;;;;;;5074127;28;20292;-82
2022/05/16 10:39:18;;;;;;;1.13;1.10;;;28.80;99.90;;;;;;5042462;28;20207;-82
2022/05/16 10:41:56;;;;;;;0.88;0.70;;;28.50;99.90;;;;;;5041632;28;20177;-82
2022/05/16 10:44:31;;;;;;;0.73;0.73;;;29.00;99.90;;;;;;5040566;28;20187;-82
2022/05/16 10:47:27;;;;;;;0.85;0.85;;;29.50;99.90;;;;;;5057312;28;20189;-82
2022/05/16 10:50:13;;;;;;;1.23;1.00;;;29.70;99.90;;;;;;5054772;28;20181;-82
2022/05/16 10:52:45;;;;;;;1.13;0.82;;;29.90;99.90;;;;;;5056764;28;20209;-83
2022/05/16 10:55:12;;;;;;;0.88;0.88;;;29.60;99.90;;;;;;5055088;28;20303;-82
2022/05/16 10:58:15;;;;;;;3.35;1.77;;;29.90;99.90;;;;;;5058917;28;20217;-83
2022/05/16 11:00:46;;;;;;;0.63;0.63;;;29.90;99.90;;;;;;5041676;28;20177;-83
2022/05/16 11:03:34;;;;;;;1.55;0.95;;;30.00;99.90;;;;;;5059503;28;20189;-82
2022/05/16 11:06:18;;;;;;;2.28;0.80;;;30.00;99.90;;;;;;5046970;28;20324;-82
2022/05/16 11:09:30;;;;;;;1.48;0.88;;;29.90;99.90;;;;;;5058981;28;20247;-82
2022/05/16 11:12:01;;;;;;;0.40;0.40;;;29.40;99.90;;;;;;4983508;28;20729;-83
2022/05/16 11:14:52;;;;;;;2.40;0.77;;;29.00;99.90;;;;;;5039968;28;20181;-82
2022/05/16 11:17:39;;;;;;;6.03;3.33;;;28.60;99.90;;;;;;5057828;28;20173;-83
2022/05/16 11:20:26;;;;;;;1.48;1.35;;;27.90;99.90;;;;;;5059193;28;20181;-83
2022/05/16 11:23:11;;;;;;;0.75;0.75;;;26.70;99.90;;;;;;5054720;28;21204;-84
2022/05/16 11:25:49;;;;;;;0.75;0.68;;;25.60;99.90;;;;;;5051505;28;20224;-83
2022/05/16 11:28:20;;;;;;;0.20;0.20;;;24.40;99.90;;;;;;5067950;28;20586;-82
2022/05/16 11:30:54;;;;;;;4.63;0.50;;;23.10;99.90;;;;;;5056910;28;20246;-82
2022/05/16 11:33:27;;;;;;;0.30;0.30;;;22.30;99.90;;;;;;5036608;28;20289;-81
2022/05/16 11:36:01;;;;;;;1.93;1.73;;;22.50;99.90;;;;;;5071802;28;20212;-82
2022/05/16 11:38:39;;;;;;;0.63;0.63;;;22.50;99.90;;;;;;5038022;28;20640;-81
2022/05/16 11:41:07;;;;;;;0.50;0.50;;;22.40;99.90;;;;;;5054593;28;20272;-80
2022/05/16 11:43:46;;;;;;;0.40;0.40;;;22.30;99.90;;;;;;5055311;28;20217;-80
2022/05/16 11:46:31;;;;;;;0.70;0.37;;;22.10;99.90;;;;;;5037850;28;20232;-81
2022/05/16 11:49:16;;;;;;;0.40;0.40;;;22.60;99.90;;;;;;5040393;28;20200;-81
2022/05/16 11:51:50;;;;;;;0.30;0.30;;;22.30;99.90;;;;;;5056550;28;20216;-80
2022/05/16 11:54:22;;;;;;;0.73;0.73;;;22.90;99.90;;;;;;5057114;28;20181;-80
2022/05/16 12:03:08;;;;;;;0.73;0.73;;;24.20;99.90;;;;;;5058921;28;20239;-80
2022/05/16 12:05:42;;;;;;;3.03;0.57;;;24.20;99.90;;;;;;5056803;28;21350;-81
2022/05/16 12:08:25;;;;;;;0.53;0.50;;;24.30;99.90;;;;;;5055871;28;20219;-80
2022/05/16 12:11:03;;;;;;;0.50;0.50;;;24.30;99.90;;;;;;5055810;28;20217;-80
2022/05/16 12:13:34;;;;;;;0.70;0.70;;;24.40;99.90;;;;;;5056734;28;20591;-80
2022/05/16 12:16:19;;;;;;;0.37;0.37;;;24.60;99.90;;;;;;5054133;28;20208;-80
2022/05/16 12:19:08;;;;;;;0.50;0.50;;;25.60;99.90;;;;;;5037714;28;20185;-81
2022/05/16 12:21:35;;;;;;;1.10;0.67;;;26.40;99.90;;;;;;5057619;28;20262;-80
2022/05/16 12:24:06;;;;;;;0.50;0.50;;;27.00;99.90;;;;;;5057865;28;20551;-80
2022/05/16 12:26:39;;;;;;;1.03;0.93;;;27.20;99.90;;;;;;5039136;28;20238;-80
2022/05/16 12:29:08;;;;;;;0.60;0.60;;;27.00;99.90;;;;;;5040994;28;20195;-81
2022/05/16 12:31:50;;;;;;;0.63;0.63;;;27.30;99.90;;;;;;5053902;28;20181;-81
2022/05/16 12:34:31;;;;;;;1.77;1.67;;;27.40;99.90;;;;;;5055974;28;20284;-81
2022/05/16 12:36:59;;;;;;;1.08;0.75;;;27.30;99.90;;;;;;5041319;28;20541;-81
2022/05/16 12:39:31;;;;;;;1.53;0.67;;;27.40;99.90;;;;;;5037614;28;20685;-81
2022/05/16 12:41:59;;;;;;;3.42;0.80;;;27.30;99.90;;;;;;5038008;28;20224;-81
2022/05/16 12:44:52;;;;;;;1.00;1.00;;;27.40;99.90;;;;;;5054884;28;20255;-80
2022/05/16 12:47:36;;;;;;;1.13;0.50;;;27.50;99.90;;;;;;5044531;28;20189;-82
2022/05/16 12:50:33;;;;;;;0.50;0.50;;;27.10;99.90;;;;;;5040361;28;20858;-81
2022/05/16 12:53:23;;;;;;;0.50;0.50;;;26.90;99.90;;;;;;5057144;28;20201;-81
2022/05/16 12:56:10;;;;;;;1.95;0.80;;;26.80;99.90;;;;;;5054028;28;20691;-81
2022/05/16 12:58:46;;;;;;;1.33;1.15;;;27.10;99.90;;;;;;5040531;28;20178;-82
2022/05/16 13:01:41;;;;;;;0.50;0.50;;;27.00;99.90;;;;;;5055988;28;20174;-82
2022/05/16 13:04:38;;;;;;;0.77;0.60;;;27.20;99.90;;;;;;5056805;28;20260;-82
2022/05/16 13:07:21;;;;;;;1.00;0.80;;;27.10;99.90;;;;;;5038213;28;20188;-81
2022/05/16 13:10:16;;;;;;;0.50;0.50;;;27.10;99.90;;;;;;5057184;28;20311;-81
2022/05/16 13:13:11;;;;;;;0.43;0.43;;;27.10;99.90;;;;;;5054633;28;20232;-82
2022/05/16 13:15:44;;;;;;;5.07;1.05;;;26.90;99.90;;;;;;5036504;28;20201;-84
2022/05/16 13:18:14;;;;;;;0.87;0.50;;;26.60;99.90;;;;;;5056193;28;20623;-82
2022/05/16 13:20:44;;;;;;;0.57;0.57;;;26.40;99.90;;;;;;5056998;28;20554;-83
2022/05/16 13:23:09;;;;;;;0.90;0.80;;;26.20;99.90;;;;;;5036407;28;20184;-82
2022/05/16 13:29:21;;;;;;;2.67;0.90;;;26.50;99.90;;;;;;5038627;28;20209;-81
2022/05/16 13:31:06;;;;;;;0.63;0.50;;;26.60;99.90;;;;;;5057557;28;20250;-83
2022/05/16 13:33:39;;;;;;;1.63;1.53;;;26.70;99.90;;;;;;5039826;28;20201;-82
2022/05/16 13:36:16;;;;;;;0.73;0.73;;;27.10;99.90;;;;;;5072862;28;21082;-81
2022/05/16 13:38:46;;;;;;;1.63;0.83;;;27.10;99.90;;;;;;5056956;28;20186;-82
2022/05/16 13:41:12;;;;;;;0.50;0.50;;;26.90;99.90;;;;;;5051056;28;20225;-82